Disclaimer

Please do not use the information listed here in-flight or in-navigation, as they are not provided to us by the airports but are provided by volunteers, so they might be outdated.

Search


Regions


Airport information page

Radio informations:
Tower (TWR) - 119.2 MHz
Automatic Terminal Information Service (ATIS) - 125.1 MHz
RDR - 124.4 MHz

Airport informations:
Latitude: 24° 25' 58.70" N
Longitude: 054° 39' 04.10" E
Elevation: 88 feet - 27 meters
Operating hours: 24 hour operations
Operating agency: Civil government, landing fees and diplomatic clearance may be required
Timezone: UTC+4
Fuel: Jet A1, without icing nhibitor.

100/130 MIL Spec, low lead, aviation gasoline (BLUE)

Runway information:
13/31 - 13452 x 148 feet< - >4100 x 45 meters

Recent METARs:
OMAA 151200Z 11006KT 070V140 CAVOK 36/12 Q1011 BECMG 35010KT
OMAA 151200Z 11006KT 070V140 CAVOK 36/12 Q1011 BECMG 35010KT
OMAA 151300Z 34008KT CAVOK 33/18 Q1012 NOSIG

Airport on the map: